Time,TemperatureF,DewpointF,PressureIn,WindDirection,WindDirectionDegrees,WindSpeedMPH,WindSpeedGustMPH,Humidity,HourlyPrecipIn,Conditions,Clouds,dailyrainin,SoftwareType,DateUTC
2013-06-25 00:01:00,67.0,65.0,-100.00,South,185,3.0,4.0,94,-99.99,,,-99.99,,2013-06-25 05:01:00,
2013-06-25 00:11:00,67.0,65.0,-100.00,South,185,3.0,4.0,94,-99.99,,,-99.99,,2013-06-25 05:11:00,
2013-06-25 00:32:00,66.0,64.0,-100.00,SSE,165,0.0,3.0,95,-99.99,,,-99.99,,2013-06-25 05:32:00,
2013-06-25 00:44:00,65.0,64.0,-100.00,SSE,165,0.0,0.0,95,-99.99,,,-99.99,,2013-06-25 05:44:00,
2013-06-25 00:52:00,65.0,64.0,-100.00,SSE,165,0.0,0.0,95,-99.99,,,-99.99,,2013-06-25 05:52:00,
2013-06-25 01:01:00,65.0,64.0,-100.00,SSE,165,0.0,0.0,95,-99.99,,,-99.99,,2013-06-25 06:01:00,
2013-06-25 01:11:00,65.0,64.0,-100.00,SSE,165,0.0,0.0,95,-99.99,,,-99.99,,2013-06-25 06:11:00,
2013-06-25 01:43:00,66.0,65.0,-100.00,South,190,3.0,6.0,96,-99.99,,,-99.99,,2013-06-25 06:43:00,
2013-06-25 01:52:00,66.0,65.0,-100.00,South,190,3.0,6.0,96,-99.99,,,-99.99,,2013-06-25 06:52:00,
2013-06-25 02:02:00,66.0,65.0,-100.00,South,190,3.0,6.0,96,-99.99,,,-99.99,,2013-06-25 07:02:00,
2013-06-25 02:11:00,66.0,65.0,-100.00,South,190,3.0,6.0,96,-99.99,,,-99.99,,2013-06-25 07:11:00,
2013-06-25 02:33:00,66.0,65.0,-100.00,South,185,4.0,7.0,96,-99.99,,,-99.99,,2013-06-25 07:33:00,
2013-06-25 02:43:00,66.0,65.0,-100.00,South,185,4.0,7.0,96,-99.99,,,-99.99,,2013-06-25 07:43:00,
2013-06-25 02:52:00,66.0,65.0,-100.00,South,185,4.0,7.0,96,-99.99,,,-99.99,,2013-06-25 07:52:00,
2013-06-25 03:01:00,66.0,65.0,-100.00,South,185,4.0,7.0,96,-99.99,,,-99.99,,2013-06-25 08:01:00,
2013-06-25 03:11:00,66.0,65.0,-100.00,South,185,4.0,7.0,96,-99.99,,,-99.99,,2013-06-25 08:11:00,
2013-06-25 03:34:00,66.0,65.0,-100.00,South,190,6.0,7.0,96,-99.99,,,-99.99,,2013-06-25 08:34:00,
2013-06-25 03:43:00,66.0,65.0,-100.00,South,190,6.0,7.0,96,-99.99,,,-99.99,,2013-06-25 08:43:00,
2013-06-25 03:53:00,66.0,65.0,-100.00,South,190,6.0,7.0,96,-99.99,,,-99.99,,2013-06-25 08:53:00,
2013-06-25 04:02:00,66.0,65.0,-100.00,South,190,6.0,7.0,96,-99.99,,,-99.99,,2013-06-25 09:02:00,
2013-06-25 04:12:00,66.0,65.0,-100.00,South,190,6.0,7.0,96,-99.99,,,-99.99,,2013-06-25 09:12:00,
2013-06-25 04:43:00,65.0,64.0,-100.00,SSW,200,1.0,4.0,96,-99.99,,,-99.99,,2013-06-25 09:43:00,
2013-06-25 04:53:00,65.0,64.0,-100.00,SSW,200,1.0,4.0,96,-99.99,,,-99.99,,2013-06-25 09:53:00,
2013-06-25 05:01:00,65.0,64.0,-100.00,SSW,200,1.0,4.0,96,-99.99,,,-99.99,,2013-06-25 10:01:00,
2013-06-25 05:11:00,65.0,64.0,-100.00,SSW,200,1.0,4.0,96,-99.99,,,-99.99,,2013-06-25 10:11:00,
2013-06-25 05:43:00,65.0,65.0,-100.00,SSW,200,4.0,10.0,97,-99.99,,,-99.99,,2013-06-25 10:43:00,
2013-06-25 05:52:00,65.0,65.0,-100.00,SSW,200,4.0,10.0,97,-99.99,,,-99.99,,2013-06-25 10:52:00,
2013-06-25 06:02:00,65.0,65.0,-100.00,SSW,200,4.0,10.0,97,-99.99,,,-99.99,,2013-06-25 11:02:00,
2013-06-25 06:12:00,65.0,65.0,-100.00,SSW,200,4.0,10.0,97,-99.99,,,-99.99,,2013-06-25 11:12:00,
2013-06-25 06:43:00,64.0,63.0,-100.00,SSW,195,0.0,1.0,97,-99.99,,,-99.99,,2013-06-25 11:43:00,
2013-06-25 06:52:00,64.0,63.0,-100.00,SSW,195,0.0,1.0,97,-99.99,,,-99.99,,2013-06-25 11:52:00,
2013-06-25 07:02:00,64.0,63.0,-100.00,SSW,195,0.0,1.0,97,-99.99,,,-99.99,,2013-06-25 12:02:00,
2013-06-25 07:10:00,66.0,65.0,-100.00,South,175,2.0,4.0,97,-99.99,,,-99.99,,2013-06-25 12:10:00,
2013-06-25 07:11:00,64.0,63.0,-100.00,SSW,195,0.0,1.0,97,-99.99,,,-99.99,,2013-06-25 12:11:00,
2013-06-25 07:33:00,66.0,65.0,-100.00,South,175,2.0,4.0,97,-99.99,,,-99.99,,2013-06-25 12:33:00,
2013-06-25 07:43:00,66.0,65.0,-100.00,South,175,2.0,4.0,97,-99.99,,,-99.99,,2013-06-25 12:43:00,
2013-06-25 07:55:00,66.0,65.0,-100.00,South,175,2.0,4.0,97,-99.99,,,-99.99,,2013-06-25 12:55:00,
2013-06-25 08:02:00,66.0,65.0,-100.00,South,175,2.0,4.0,97,-99.99,,,-99.99,,2013-06-25 13:02:00,
2013-06-25 08:34:00,70.0,69.0,-100.00,SSW,210,4.0,7.0,96,-99.99,,,-99.99,,2013-06-25 13:34:00,
2013-06-25 08:42:00,70.0,69.0,-100.00,SSW,210,4.0,7.0,96,-99.99,,,-99.99,,2013-06-25 13:42:00,
2013-06-25 08:53:00,70.0,69.0,-100.00,SSW,210,4.0,7.0,96,-99.99,,,-99.99,,2013-06-25 13:53:00,
2013-06-25 09:01:00,70.0,69.0,-100.00,SSW,210,4.0,7.0,96,-99.99,,,-99.99,,2013-06-25 14:01:00,
2013-06-25 09:34:00,71.0,67.0,-100.00,SSE,160,2.0,6.0,90,-99.99,,,-99.99,,2013-06-25 14:34:00,
2013-06-25 09:43:00,71.0,67.0,-100.00,SSE,160,2.0,6.0,90,-99.99,,,-99.99,,2013-06-25 14:43:00,
2013-06-25 09:53:00,71.0,67.0,-100.00,SSE,160,2.0,6.0,90,-99.99,,,-99.99,,2013-06-25 14:53:00,
2013-06-25 10:02:00,71.0,67.0,-100.00,SSE,160,2.0,6.0,90,-99.99,,,-99.99,,2013-06-25 15:02:00,
2013-06-25 10:32:00,73.0,66.0,-100.00,ENE,60,2.0,6.0,79,-99.99,,,-99.99,,2013-06-25 15:32:00,
2013-06-25 10:44:00,73.0,66.0,-100.00,ENE,60,2.0,6.0,79,-99.99,,,-99.99,,2013-06-25 15:44:00,
2013-06-25 10:53:00,73.0,66.0,-100.00,ENE,60,2.0,6.0,79,-99.99,,,-99.99,,2013-06-25 15:53:00,
2013-06-25 11:03:00,73.0,66.0,-100.00,ENE,60,2.0,6.0,79,-99.99,,,-99.99,,2013-06-25 16:03:00,
2013-06-25 11:35:00,75.0,66.0,-100.00,NNE,25,9.0,12.0,75,-99.99,,,-99.99,,2013-06-25 16:35:00,
2013-06-25 11:44:00,75.0,66.0,-100.00,NNE,25,9.0,12.0,75,-99.99,,,-99.99,,2013-06-25 16:44:00,
2013-06-25 11:52:00,75.0,66.0,-100.00,NNE,25,9.0,12.0,75,-99.99,,,-99.99,,2013-06-25 16:52:00,
2013-06-25 12:01:00,75.0,66.0,-100.00,NNE,25,9.0,12.0,75,-99.99,,,-99.99,,2013-06-25 17:01:00,
2013-06-25 12:34:00,77.0,65.0,-100.00,SSE,165,5.0,12.0,68,-99.99,,,-99.99,,2013-06-25 17:34:00,
2013-06-25 12:44:00,77.0,65.0,-100.00,SSE,165,5.0,12.0,68,-99.99,,,-99.99,,2013-06-25 17:44:00,
2013-06-25 12:53:00,77.0,65.0,-100.00,SSE,165,5.0,12.0,68,-99.99,,,-99.99,,2013-06-25 17:53:00,
2013-06-25 13:02:00,77.0,65.0,-100.00,SSE,165,5.0,12.0,68,-99.99,,,-99.99,,2013-06-25 18:02:00,
2013-06-25 13:34:00,79.0,64.0,-100.00,SE,125,4.0,11.0,61,-99.99,,,-99.99,,2013-06-25 18:34:00,
2013-06-25 13:45:00,79.0,64.0,-100.00,SE,125,4.0,11.0,61,-99.99,,,-99.99,,2013-06-25 18:45:00,
2013-06-25 13:53:00,79.0,64.0,-100.00,SE,125,4.0,11.0,61,-99.99,,,-99.99,,2013-06-25 18:53:00,
2013-06-25 14:01:00,79.0,64.0,-100.00,SE,125,4.0,11.0,61,-99.99,,,-99.99,,2013-06-25 19:01:00,
2013-06-25 14:10:00,78.0,65.0,-100.00,South,180,9.0,13.0,65,-99.99,,,-99.99,,2013-06-25 19:10:00,
2013-06-25 14:33:00,78.0,65.0,-100.00,South,180,9.0,13.0,65,-99.99,,,-99.99,,2013-06-25 19:33:00,
2013-06-25 14:44:00,78.0,65.0,-100.00,South,180,9.0,13.0,65,-99.99,,,-99.99,,2013-06-25 19:44:00,
2013-06-25 14:54:00,78.0,65.0,-100.00,South,180,9.0,13.0,65,-99.99,,,-99.99,,2013-06-25 19:54:00,
2013-06-25 15:02:00,78.0,65.0,-100.00,South,180,9.0,13.0,65,-99.99,,,-99.99,,2013-06-25 20:02:00,
2013-06-25 15:10:00,80.0,66.0,-100.00,SSE,165,1.0,6.0,63,-99.99,,,-99.99,,2013-06-25 20:10:00,
2013-06-25 15:33:00,80.0,66.0,-100.00,SSE,165,1.0,6.0,63,-99.99,,,-99.99,,2013-06-25 20:33:00,
2013-06-25 15:43:00,80.0,66.0,-100.00,SSE,165,1.0,6.0,63,-99.99,,,-99.99,,2013-06-25 20:43:00,
2013-06-25 15:52:00,80.0,66.0,-100.00,SSE,165,1.0,6.0,63,-99.99,,,-99.99,,2013-06-25 20:52:00,
2013-06-25 16:01:00,80.0,66.0,-100.00,SSE,165,1.0,6.0,63,-99.99,,,-99.99,,2013-06-25 21:01:00,
2013-06-25 16:34:00,82.0,68.0,-100.00,ENE,65,4.0,9.0,61,-99.99,,,-99.99,,2013-06-25 21:34:00,
2013-06-25 16:43:00,82.0,68.0,-100.00,ENE,65,4.0,9.0,61,-99.99,,,-99.99,,2013-06-25 21:43:00,
2013-06-25 16:53:00,82.0,68.0,-100.00,ENE,65,4.0,9.0,61,-99.99,,,-99.99,,2013-06-25 21:53:00,
2013-06-25 17:01:00,82.0,68.0,-100.00,ENE,65,4.0,9.0,61,-99.99,,,-99.99,,2013-06-25 22:01:00,
2013-06-25 17:34:00,82.0,68.0,-100.00,SW,220,1.0,5.0,61,-99.99,,,-99.99,,2013-06-25 22:34:00,
2013-06-25 17:42:00,82.0,68.0,-100.00,SW,220,1.0,5.0,61,-99.99,,,-99.99,,2013-06-25 22:42:00,
2013-06-25 17:52:00,82.0,68.0,-100.00,SW,220,1.0,5.0,61,-99.99,,,-99.99,,2013-06-25 22:52:00,
2013-06-25 18:01:00,82.0,68.0,-100.00,SW,220,1.0,5.0,61,-99.99,,,-99.99,,2013-06-25 23:01:00,
2013-06-25 18:10:00,82.0,67.0,-100.00,South,185,3.0,7.0,60,-99.99,,,-99.99,,2013-06-25 23:10:00,
2013-06-25 18:34:00,82.0,67.0,-100.00,South,185,3.0,7.0,60,-99.99,,,-99.99,,2013-06-25 23:34:00,
2013-06-25 18:44:00,82.0,67.0,-100.00,South,185,3.0,7.0,60,-99.99,,,-99.99,,2013-06-25 23:44:00,
2013-06-25 18:52:00,82.0,67.0,-100.00,South,185,3.0,7.0,60,-99.99,,,-99.99,,2013-06-25 23:52:00,
2013-06-25 19:02:00,82.0,67.0,-100.00,South,185,3.0,7.0,60,-99.99,,,-99.99,,2013-06-26 00:02:00,
2013-06-25 19:33:00,82.0,67.0,-100.00,South,170,2.0,7.0,60,-99.99,,,-99.99,,2013-06-26 00:33:00,
2013-06-25 19:42:00,82.0,67.0,-100.00,South,170,2.0,7.0,60,-99.99,,,-99.99,,2013-06-26 00:42:00,
2013-06-25 19:53:00,82.0,67.0,-100.00,South,170,2.0,7.0,60,-99.99,,,-99.99,,2013-06-26 00:53:00,
2013-06-25 20:01:00,82.0,67.0,-100.00,South,170,2.0,7.0,60,-99.99,,,-99.99,,2013-06-26 01:01:00,
2013-06-25 20:33:00,78.0,69.0,-100.00,SSE,150,2.0,6.0,75,-99.99,,,-99.99,,2013-06-26 01:33:00,
2013-06-25 20:43:00,78.0,69.0,-100.00,SSE,150,2.0,6.0,75,-99.99,,,-99.99,,2013-06-26 01:43:00,
2013-06-25 20:53:00,78.0,69.0,-100.00,SSE,150,2.0,6.0,75,-99.99,,,-99.99,,2013-06-26 01:53:00,
2013-06-25 21:02:00,78.0,69.0,-100.00,SSE,150,2.0,6.0,75,-99.99,,,-99.99,,2013-06-26 02:02:00,
2013-06-25 21:34:00,74.0,70.0,-100.00,NE,45,2.0,2.0,88,-99.99,,,-99.99,,2013-06-26 02:34:00,
2013-06-25 21:43:00,74.0,70.0,-100.00,NE,45,2.0,2.0,88,-99.99,,,-99.99,,2013-06-26 02:43:00,
2013-06-25 21:53:00,74.0,70.0,-100.00,NE,45,2.0,2.0,88,-99.99,,,-99.99,,2013-06-26 02:53:00,
2013-06-25 22:02:00,74.0,70.0,-100.00,NE,45,2.0,2.0,88,-99.99,,,-99.99,,2013-06-26 03:02:00,
2013-06-25 22:10:00,71.0,69.0,-100.00,ENE,75,0.0,4.0,94,-99.99,,,-99.99,,2013-06-26 03:10:00,
2013-06-25 22:33:00,71.0,69.0,-100.00,ENE,75,0.0,4.0,94,-99.99,,,-99.99,,2013-06-26 03:33:00,
2013-06-25 22:43:00,71.0,69.0,-100.00,ENE,75,0.0,4.0,94,-99.99,,,-99.99,,2013-06-26 03:43:00,
2013-06-25 22:52:00,71.0,69.0,-100.00,ENE,75,0.0,4.0,94,-99.99,,,-99.99,,2013-06-26 03:52:00,
2013-06-25 23:01:00,71.0,69.0,-100.00,ENE,75,0.0,4.0,94,-99.99,,,-99.99,,2013-06-26 04:01:00,
2013-06-25 23:10:00,71.0,70.0,-100.00,East,80,2.0,7.0,95,-99.99,,,-99.99,,2013-06-26 04:10:00,
2013-06-25 23:33:00,71.0,70.0,-100.00,East,80,2.0,7.0,95,-99.99,,,-99.99,,2013-06-26 04:33:00,
2013-06-25 23:43:00,71.0,70.0,-100.00,East,80,2.0,7.0,95,-99.99,,,-99.99,,2013-06-26 04:43:00,
2013-06-25 23:53:00,71.0,70.0,-100.00,East,80,2.0,7.0,95,-99.99,,,-99.99,,2013-06-26 04:53:00,